Data for 11/21/2007

Time Sea-Level Adjusted Pressure Absolute Pressure Temperature Relative Humidity Dew Point   
(mb) (inHg) (mb) (inHg) (C) (F) (%) (C) (F)
00:05 1026 30.3 855 25.25 -6.6 20.1 91 -7.8 17.9
00:10 1026 30.3 855 25.25 -6.6 20.1 91 -7.8 18
00:15 1026 30.3 855 25.25 -6.6 20.1 92 -7.7 18.1
00:20 1026 30.3 855 25.25 -6.6 20.2 92 -7.7 18.1
00:25 1026 30.3 855 25.25 -6.6 20.1 91 -7.8 18
00:30 1026 30.3 855 25.25 -6.9 19.7 91 -8.1 17.4
00:35 1026 30.3 855 25.25 -6.9 19.5 90 -8.3 17.1
00:40 1026 30.3 855 25.25 -6.7 19.9 91 -8 17.6
00:45 1026 30.3 855 25.25 -6.5 20.3 90 -7.8 18
00:50 1026 30.3 855 25.25 -6.2 20.8 90 -7.6 18.3
00:55 1026 30.3 855 25.25 -6.2 20.8 89 -7.8 18
01:00 1026 30.3 855 25.25 -6.1 20.9 88 -7.9 17.8
01:05 1026 30.3 855 25.25 -6.1 21 87 -8 17.6
01:10 1026 30.3 855 25.25 -6.2 20.9 85 -8.3 17.1
01:15 1026 30.3 855 25.25 -6.3 20.7 86 -8.3 17.1
01:20 1026 30.3 855 25.25 -6.4 20.6 87 -8.2 17.2
01:25 1026 30.3 855 25.25 -6.4 20.4 87 -8.2 17.2
01:30 1026 30.3 855 25.25 -6.6 20.2 87 -8.4 17
01:35 1026 30.3 855 25.25 -6.6 20.1 87 -8.4 16.9
01:40 1026 30.3 855 25.25 -6.8 19.7 88 -8.5 16.6
01:45 1026 30.3 855 25.25 -7.2 19.1 88 -8.8 16.2
01:50 1026 30.3 855 25.25 -7.4 18.7 88 -9 15.8
01:55 1026 30.3 855 25.25 -7.6 18.3 89 -9.1 15.7
02:00 1026 30.3 855 25.25 -8 17.7 90 -9.3 15.2
02:05 1026 30.3 855 25.25 -8.5 16.8 92 -9.5 14.9
02:10 1026 30.3 855 25.25 -8.6 16.6 92 -9.7 14.5
02:15 1026 30.3 855 25.25 -8.6 16.6 91 -9.7 14.5
02:20 1026 30.3 855 25.25 -8.5 16.6 91 -9.8 14.4
02:25 1026 30.3 855 25.25 -8.6 16.6 90 -9.9 14.2
02:30 1026 30.3 856 25.28 -8.8 16.1 92 -9.9 14.3
02:35 1026 30.3 856 25.28 -8.7 16.4 91 -9.9 14.2
02:40 1026 30.3 856 25.28 -8.7 16.4 91 -9.9 14.3
02:45 1026 30.3 856 25.28 -8.8 16.2 92 -9.9 14.2
02:50 1026 30.3 856 25.28 -8.8 16.1 93 -9.8 14.4
02:55 1026 30.3 856 25.28 -8.7 16.3 93 -9.7 14.5
03:00 1026 30.3 856 25.28 -8.8 16.2 93 -9.8 14.4
03:05 1026 30.3 856 25.28 -8.9 16 93 -9.9 14.2
03:10 1026 30.3 855 25.25 -9.1 15.7 93 -10 13.9
03:15 1026 30.3 855 25.25 -9.3 15.3 94 -10.2 13.7
03:20 1026 30.3 855 25.25 -9.5 14.9 94 -10.3 13.5
03:25 1026 30.3 855 25.25 -9.6 14.8 94 -10.4 13.4
03:30 1026 30.3 855 25.25 -9.6 14.8 95 -10.3 13.5
03:35 1026 30.3 855 25.25 -9.7 14.6 96 -10.1 13.7
03:40 1026 30.3 855 25.25 -9.6 14.6 97 -10 14
03:45 1026 30.3 855 25.25 -9.4 15 97 -9.9 14.3
03:50 1026 30.3 855 25.25 -9.1 15.5 96 -9.7 14.6
03:55 1026 30.3 855 25.25 -8.9 15.9 95 -9.6 14.8
04:00 1026 30.3 856 25.28 -8.7 16.3 95 -9.4 15.1
04:05 1026 30.3 856 25.28 -8.5 16.7 94 -9.3 15.3
04:10 1026 30.3 856 25.28 -8.4 16.9 93 -9.3 15.3
04:15 1026 30.3 856 25.28 -8.5 16.7 94 -9.3 15.3
04:20 1026 30.3 856 25.28 -8.5 16.7 93 -9.4 15.1
04:25 1026 30.3 856 25.28 -8.7 16.4 95 -9.4 15.1
04:30 1026 30.3 856 25.28 -8.6 16.6 94 -9.4 15.1
04:35 1027 30.33 856 25.28 -8.7 16.4 95 -9.3 15.2
04:40 1027 30.33 856 25.28 -8.7 16.3 95 -9.3 15.2
04:45 1027 30.33 856 25.28 -8.7 16.4 95 -9.3 15.2
04:50 1027 30.33 856 25.28 -8.5 16.6 95 -9.2 15.5
04:55 1027 30.33 856 25.28 -8.3 17 93 -9.2 15.4
05:00 1027 30.33 856 25.28 -8.2 17.2 93 -9.2 15.5
05:05 1027 30.33 856 25.28 -8.2 17.3 92 -9.2 15.4
05:10 1027 30.33 856 25.28 -8.2 17.2 92 -9.3 15.2
05:15 1027 30.33 856 25.28 -8.3 17.1 91 -9.5 15
05:20 1027 30.33 856 25.28 -8.4 16.9 92 -9.4 15
05:25 1027 30.33 856 25.28 -8.4 16.9 92 -9.4 15
05:30 1027 30.33 856 25.28 -8.3 17.1 91 -9.5 15
05:35 1027 30.33 856 25.28 -8.2 17.2 91 -9.4 15.1
05:40 1027 30.33 856 25.28 -8.2 17.2 91 -9.5 15
05:45 1027 30.33 856 25.28 -8.3 17 92 -9.4 15
05:50 1027 30.33 856 25.28 -8.3 17.1 91 -9.5 15
05:55 1027 30.33 856 25.28 -8.3 17.1 91 -9.5 14.8
06:00 1027 30.33 857 25.31 -8.6 16.5 92 -9.7 14.6
06:05 1027 30.33 857 25.31 -8.7 16.3 91 -9.9 14.1
06:10 1027 30.33 857 25.31 -8.7 16.3 92 -9.9 14.3
06:15 1027 30.33 856 25.28 -8.7 16.4 89 -10.1 13.8
06:20 1027 30.33 856 25.28 -8.7 16.3 90 -10.1 13.9
06:25 1027 30.33 857 25.31 -8.7 16.3 89 -10.2 13.6
06:30 1027 30.33 857 25.31 -8.8 16.1 90 -10.2 13.7
06:35 1027 30.33 857 25.31 -8.8 16.1 91 -10.1 13.8
06:40 1027 30.33 857 25.31 -8.8 16.2 90 -10.2 13.7
06:45 1027 30.33 857 25.31 -8.9 16 91 -10.1 13.8
06:50 1027 30.33 857 25.31 -8.8 16.2 91 -10 14
06:55 1027 30.33 857 25.31 -8.8 16.3 91 -10 14
07:00 1027 30.33 857 25.31 -8.8 16.3 91 -10 14
07:05 1028 30.36 857 25.31 -8.7 16.3 92 -9.9 14.3
07:10 1028 30.36 857 25.31 -8.7 16.4 91 -9.9 14.2
07:15 1028 30.36 857 25.31 -8.6 16.4 92 -9.8 14.4
07:20 1028 30.36 857 25.31 -8.6 16.6 91 -9.7 14.5
07:25 1028 30.36 857 25.31 -8.5 16.8 91 -9.7 14.6
07:30 1028 30.36 857 25.31 -8.4 16.8 92 -9.6 14.8
07:35 1028 30.36 857 25.31 -8.3 17 92 -9.5 14.9
07:40 1028 30.36 857 25.31 -8.2 17.2 91 -9.4 15
07:45 1028 30.36 857 25.31 -8.2 17.2 91 -9.5 15
07:50 1028 30.36 857 25.31 -8.5 16.7 91 -9.7 14.6
07:55 1028 30.36 857 25.31 -8.6 16.6 92 -9.6 14.7
08:00 1028 30.36 857 25.31 -8.5 16.8 92 -9.5 14.9
08:05 1028 30.36 857 25.31 -8.4 16.9 92 -9.5 14.9
08:10 1028 30.36 857 25.31 -8.5 16.7 91 -9.7 14.6
08:15 1028 30.36 857 25.31 -8.7 16.3 92 -9.8 14.4
08:20 1028 30.36 857 25.31 -8.8 16.2 92 -9.8 14.3
08:25 1028 30.36 857 25.31 -8.7 16.4 92 -9.7 14.5
08:30 1028 30.36 857 25.31 -8.5 16.6 92 -9.6 14.6
08:35 1028 30.36 857 25.31 -8.3 17 91 -9.5 14.9
08:40 1028 30.36 857 25.31 -8.1 17.4 90 -9.5 14.9
08:45 1028 30.36 857 25.31 -8.1 17.5 90 -9.5 15
08:50 1028 30.36 857 25.31 -8 17.5 89 -9.5 14.9
08:55 1028 30.36 857 25.31 -7.9 17.7 88 -9.5 14.8
09:00 1028 30.36 857 25.31 -8.1 17.5 90 -9.5 15
09:05 1028 30.36 857 25.31 -8.3 17.1 90 -9.6 14.7
09:10 1028 30.36 857 25.31 -8.4 16.9 91 -9.6 14.8
09:15 1028 30.36 857 25.31 -8.3 17 91 -9.5 14.9
09:20 1028 30.36 857 25.31 -8.1 17.4 90 -9.4 15.1
09:25 1028 30.36 857 25.31 -8 17.6 91 -9.3 15.3
09:30 1028 30.36 857 25.31 -8 17.6 89 -9.5 14.9
09:35 1028 30.36 857 25.31 -8 17.6 90 -9.4 15.1
09:40 1028 30.36 857 25.31 -8 17.7 89 -9.5 14.9
09:45 1028 30.36 858 25.34 -7.9 17.7 89 -9.4 15.1
09:50 1028 30.36 858 25.34 -7.6 18.3 88 -9.3 15.3
09:55 1028 30.36 858 25.34 -7.4 18.7 88 -9.1 15.6
10:00 1028 30.36 858 25.34 -7.2 19 85 -9.3 15.3
10:05 1029 30.39 858 25.34 -6.5 20.3 82 -9.1 15.6
10:10 1029 30.39 858 25.34 -6.2 20.8 80 -9.1 15.6
10:15 1029 30.39 858 25.34 -6.1 21 79 -9.1 15.6
10:20 1029 30.39 858 25.34 -5.9 21.4 78 -9.1 15.6
10:25 1029 30.39 858 25.34 -6.3 20.6 82 -8.9 16
10:30 1029 30.39 858 25.34 -6.5 20.2 82 -9.2 15.5
10:35 1029 30.39 858 25.34 -6.4 20.5 80 -9.3 15.3
10:40 1029 30.39 858 25.34 -5.4 22.2 76 -9 15.8
10:45 1029 30.39 858 25.34 -4.3 24.3 72 -8.6 16.5
10:50 1029 30.39 858 25.34 -4.2 24.5 73 -8.3 17
10:55 1029 30.39 858 25.34 -4.3 24.2 71 -8.8 16.1
11:00 1029 30.39 858 25.34 -4.4 24.1 70 -9.1 15.7
11:05 1029 30.39 858 25.34 -4.3 24.3 73 -8.5 16.7
11:10 1028 30.36 858 25.34 -5.2 22.6 76 -8.8 16.1
11:15 1028 30.36 858 25.34 -5.4 22.3 74 -9.3 15.3
11:20 1028 30.36 858 25.34 -5.2 22.7 75 -8.9 16
11:25 1028 30.36 858 25.34 -5 23 72 -9.3 15.2
11:30 1028 30.36 858 25.34 -4.9 23.2 70 -9.6 14.7
11:35 1028 30.36 858 25.34 -5.2 22.7 68 -10.2 13.6
11:40 1028 30.36 858 25.34 -5.6 22 69 -10.4 13.4
11:45 1028 30.36 857 25.31 -5.3 22.5 68 -10.3 13.5
11:50 1028 30.36 857 25.31 -4.9 23.3 66 -10.3 13.5
11:55 1028 30.36 857 25.31 -4.8 23.4 69 -9.7 14.6
12:00 1028 30.36 857 25.31 -4.9 23.2 69 -9.8 14.4
12:05 1028 30.36 857 25.31 -5.3 22.4 71 -9.8 14.4
12:10 1028 30.36 857 25.31 -5.2 22.7 71 -9.6 14.7
12:15 1028 30.36 857 25.31 -4.8 23.3 67 -10.1 13.8
12:20 1028 30.36 857 25.31 -4.9 23.2 67 -10.2 13.7
12:25 1028 30.36 857 25.31 -5.1 22.7 68 -10.1 13.9
12:30 1028 30.36 857 25.31 -4.5 23.8 66 -10 14
12:35 1028 30.36 857 25.31 -4.5 23.9 66 -9.9 14.1
12:40 1028 30.36 857 25.31 -3.8 25.1 63 -10 14.1
12:45 1028 30.36 857 25.31 -3.4 25.9 60 -10.1 13.8
12:50 1028 30.36 857 25.31 -3.3 26 59 -10.3 13.5
12:55 1028 30.36 857 25.31 -3.4 25.9 59 -10.3 13.4
13:00 1028 30.36 857 25.31 -3.6 25.6 58 -10.7 12.7
13:05 1028 30.36 857 25.31 -3.5 25.6 57 -10.9 12.3
13:10 1028 30.36 857 25.31 -3.4 25.9 57 -10.7 12.7
13:15 1028 30.36 857 25.31 -3 26.6 55 -10.8 12.6
13:20 1028 30.36 857 25.31 -3 26.5 54 -11 12.1
13:25 1028 30.36 857 25.31 -3.4 25.9 58 -10.5 13.1
13:30 1028 30.36 857 25.31 -3.5 25.7 58 -10.6 12.9
13:35 1028 30.36 857 25.31 -3.1 26.4 55 -10.8 12.5
13:40 1028 30.36 857 25.31 -3 26.6 55 -10.9 12.4
13:45 1028 30.36 857 25.31 -3.4 25.9 58 -10.6 12.9
13:50 1028 30.36 857 25.31 -3.9 25.1 57 -11.2 11.9
13:55 1028 30.36 857 25.31 -3.8 25.2 57 -11.2 11.9
14:00 1028 30.36 857 25.31 -3.9 25 56 -11.3 11.6
14:05 1027 30.33 857 25.31 -4.2 24.4 58 -11.4 11.4
14:10 1027 30.33 857 25.31 -3.8 25.2 55 -11.5 11.4
14:15 1027 30.33 857 25.31 -3.5 25.8 52 -11.9 10.6
14:20 1027 30.33 857 25.31 -3 26.7 51 -11.7 11
14:25 1027 30.33 857 25.31 -2.4 27.6 49 -11.8 10.8
14:30 1027 30.33 857 25.31 -2 28.5 48 -11.6 11.1
14:35 1027 30.33 857 25.31 -2.3 27.8 50 -11.5 11.3
14:40 1027 30.33 857 25.31 -2.6 27.2 50 -11.6 11.1
14:45 1027 30.33 857 25.31 -2.3 27.8 49 -11.6 11.2
14:50 1027 30.33 857 25.31 -2.4 27.7 50 -11.4 11.4
14:55 1027 30.33 857 25.31 -2.7 27.1 50 -11.7 11
15:00 1027 30.33 857 25.31 -2.8 26.9 51 -11.6 11.1
15:05 1027 30.33 857 25.31 -2.8 27 52 -11.4 11.5
15:10 1027 30.33 856 25.28 -2.6 27.3 51 -11.3 11.7
15:15 1027 30.33 856 25.28 -2.4 27.6 54 -10.5 13
15:20 1027 30.33 856 25.28 -2.4 27.7 56 -10.1 13.9
15:25 1027 30.33 856 25.28 -2.6 27.3 55 -10.4 13.3
15:30 1027 30.33 857 25.31 -2.4 27.6 55 -10.3 13.5
15:35 1027 30.33 857 25.31 -2.4 27.6 54 -10.4 13.2
15:40 1027 30.33 857 25.31 -2.5 27.4 55 -10.3 13.4
15:45 1027 30.33 857 25.31 -2.7 27.1 56 -10.2 13.6
15:50 1027 30.33 857 25.31 -3 26.7 57 -10.4 13.3
15:55 1027 30.33 857 25.31 -3.2 26.3 58 -10.4 13.3
16:00 1027 30.33 857 25.31 -3.6 25.5 60 -10.3 13.4
16:05 1027 30.33 857 25.31 -4.3 24.2 63 -10.4 13.2
16:10 1027 30.33 857 25.31 -5.4 22.3 66 -10.8 12.5
16:15 1027 30.33 856 25.28 -5.6 21.8 65 -11.2 11.9
16:20 1027 30.33 856 25.28 -5.9 21.4 65 -11.3 11.6
16:25 1027 30.33 856 25.28 -6 21.2 66 -11.3 11.6
16:30 1027 30.33 856 25.28 -5.9 21.4 65 -11.4 11.5
16:35 1027 30.33 856 25.28 -5.8 21.5 66 -11.2 11.8
16:40 1027 30.33 856 25.28 -5.9 21.3 67 -11.1 12
16:45 1027 30.33 856 25.28 -6.5 20.3 70 -11.1 12.1
16:50 1027 30.33 856 25.28 -6.9 19.6 71 -11.4 11.6
16:55 1027 30.33 856 25.28 -7.1 19.2 69 -11.9 10.5
17:00 1027 30.33 856 25.28 -7.1 19.2 72 -11.3 11.6
17:05 1027 30.33 856 25.28 -7.2 19.1 71 -11.6 11.2
17:10 1027 30.33 856 25.28 -7.2 19.1 71 -11.6 11.1
17:15 1027 30.33 856 25.28 -7.1 19.2 71 -11.6 11.1
17:20 1027 30.33 856 25.28 -7.7 18.1 73 -11.8 10.8
17:25 1027 30.33 856 25.28 -8.3 17 74 -12.2 10
17:30 1027 30.33 856 25.28 -8.5 16.8 74 -12.3 9.8
17:35 1027 30.33 856 25.28 -8.5 16.8 74 -12.4 9.7
17:40 1027 30.33 856 25.28 -8.8 16.1 74 -12.6 9.4
17:45 1027 30.33 856 25.28 -8.8 16.1 73 -12.8 8.9
17:50 1027 30.33 856 25.28 -8.7 16.3 73 -12.7 9.1
17:55 1027 30.33 856 25.28 -8.8 16.1 73 -12.8 9
18:00 1027 30.33 856 25.28 -8.9 16 73 -13 8.6
18:05 1027 30.33 856 25.28 -9.5 14.9 76 -13 8.7
18:10 1027 30.33 856 25.28 -10.1 13.8 78 -13.2 8.2
18:15 1027 30.33 856 25.28 -10.1 13.7 78 -13.3 8
18:20 1027 30.33 856 25.28 -9.9 14.2 77 -13.2 8.2
18:25 1027 30.33 856 25.28 -10 14 77 -13.2 8.2
18:30 1027 30.33 856 25.28 -9.8 14.4 76 -13.3 8
18:35 1027 30.33 856 25.28 -10 14 76 -13.4 7.8
18:40 1027 30.33 856 25.28 -10.7 12.8 78 -13.8 7.1
18:45 1027 30.33 856 25.28 -10.9 12.4 78 -14.1 6.7
18:50 1027 30.33 856 25.28 -10.7 12.8 77 -14 6.8
18:55 1027 30.33 856 25.28 -10.8 12.6 77 -14.1 6.6
19:00 1027 30.33 856 25.28 -10.7 12.7 75 -14.2 6.4
19:05 1027 30.33 856 25.28 -10.7 12.7 77 -14 6.8
19:10 1027 30.33 856 25.28 -10.9 12.4 77 -14.2 6.5
19:15 1027 30.33 856 25.28 -10.9 12.3 77 -14.1 6.6
19:20 1027 30.33 856 25.28 -11.1 12 78 -14.2 6.5
19:25 1027 30.33 856 25.28 -11.2 11.8 77 -14.4 6
19:30 1027 30.33 856 25.28 -11.3 11.7 78 -14.4 6.1
19:35 1027 30.33 856 25.28 -11.3 11.7 78 -14.4 6
19:40 1027 30.33 856 25.28 -11.3 11.7 78 -14.4 6.1
19:45 1027 30.33 856 25.28 -11.3 11.6 78 -14.4 6.1
19:50 1027 30.33 856 25.28 -11.4 11.6 78 -14.5 5.8
19:55 1027 30.33 856 25.28 -11.3 11.6 78 -14.5 5.9
20:00 1027 30.33 856 25.28 -11.4 11.6 77 -14.6 5.7
20:05 1027 30.33 856 25.28 -11.3 11.7 77 -14.5 5.8
20:10 1027 30.33 856 25.28 -11.2 11.8 77 -14.6 5.8
20:15 1027 30.33 856 25.28 -11.3 11.8 77 -14.6 5.8
20:20 1027 30.33 856 25.28 -11.3 11.7 77 -14.6 5.8
20:25 1027 30.33 856 25.28 -11.3 11.6 77 -14.6 5.7
20:30 1027 30.33 856 25.28 -11.5 11.3 78 -14.6 5.7
20:35 1027 30.33 856 25.28 -11.6 11.1 79 -14.6 5.7
20:40 1027 30.33 856 25.28 -11.6 11.1 78 -14.8 5.4
20:45 1027 30.33 856 25.28 -11.6 11.2 78 -14.7 5.6
20:50 1027 30.33 856 25.28 -11.7 11 78 -14.7 5.5
20:55 1027 30.33 856 25.28 -11.5 11.2 77 -14.8 5.4
21:00 1027 30.33 856 25.28 -11.4 11.6 77 -14.6 5.6
21:05 1027 30.33 856 25.28 -11.2 11.9 76 -14.7 5.6
21:10 1027 30.33 856 25.28 -11.2 11.8 76 -14.7 5.6
21:15 1027 30.33 856 25.28 -11.3 11.7 77 -14.6 5.8
21:20 1027 30.33 856 25.28 -11.5 11.3 78 -14.6 5.8
21:25 1027 30.33 856 25.28 -11.4 11.5 77 -14.6 5.7
21:30 1027 30.33 856 25.28 -11.2 11.9 77 -14.5 5.9
21:35 1027 30.33 856 25.28 -11.2 11.8 77 -14.6 5.8
21:40 1027 30.33 856 25.28 -11.3 11.6 76 -14.8 5.4
21:45 1027 30.33 856 25.28 -11.3 11.6 76 -14.7 5.5
21:50 1027 30.33 856 25.28 -11.2 11.9 76 -14.5 5.8
21:55 1027 30.33 856 25.28 -11.2 11.9 76 -14.6 5.6
22:00 1027 30.33 856 25.28 -11.3 11.6 77 -14.7 5.6
22:05 1027 30.33 856 25.28 -11.6 11.1 78 -14.7 5.6
22:10 1027 30.33 856 25.28 -11.6 11.1 77 -14.9 5.2
22:15 1027 30.33 856 25.28 -11.8 10.7 75 -15.3 4.4
22:20 1027 30.33 856 25.28 -12.1 10.2 74 -15.9 3.4
22:25 1027 30.33 856 25.28 -12.3 9.9 75 -15.9 3.4
22:30 1027 30.33 856 25.28 -12.1 10.2 74 -15.8 3.5
22:35 1027 30.33 856 25.28 -11.9 10.5 73 -15.9 3.4
22:40 1027 30.33 856 25.28 -12 10.3 73 -16 3.2
22:45 1027 30.33 856 25.28 -12.2 10.1 72 -16.2 2.9
22:50 1027 30.33 856 25.28 -12.1 10.2 72 -16.1 3
22:55 1027 30.33 856 25.28 -12.5 9.4 75 -16 3.1
23:00 1027 30.33 856 25.28 -12.7 9.2 77 -16 3.2
23:05 1027 30.33 856 25.28 -12.5 9.6 76 -15.8 3.5
23:10 1027 30.33 857 25.31 -12.3 9.8 78 -15.4 4.2
23:15 1027 30.33 856 25.28 -12.2 10 76 -15.6 3.9
23:20 1027 30.33 856 25.28 -12.3 9.9 78 -15.3 4.4
23:25 1027 30.33 856 25.28 -12.3 9.9 78 -15.4 4.3
23:30 1027 30.33 856 25.28 -12.2 10 78 -15.3 4.5
23:35 1027 30.33 856 25.28 -12.2 10 79 -15.1 4.9
23:40 1027 30.33 856 25.28 -12.1 10.3 78 -15.1 4.9
23:45 1027 30.33 856 25.28 -12 10.4 79 -14.9 5.1
23:50 1027 30.33 856 25.28 -12.2 10 80 -15 4.9
23:55 1027 30.33 856 25.28 -12.5 9.5 80 -15.3 4.5
24:00 1027 30.33 857 25.31 -12.8 8.9 80 -15.5 4